Geert K — PBLT — position and weather

sailwx.info

Track history (hours):
 
Tides and Currents Weather Stations Pressure Air Temp Water Temp Dewpoint Dewpoint Depression Visibility Wind Speed Wind Dir Waves Ship Positions

Geert K

Last reported at 2018-Jun-16 04:09 UTC. Time now 2018-Jun-20 09:46 UTC.
Position N 49°49' W 001°43'.

Length 90 m; draft 5.5 m.

Type: Ship. MMSI: 244462000.

Date/timePositionNaut miles runAvg speedWind from/ knotsBaromVisibWave heightAir tempDewpointWater temp
2018-Jun-16 04:09N 49°49' W 001°43'2 7.2
2018-Jun-16 03:55N 49°49' W 001°45'71 1.9
2018-Jun-14 14:18N 48°39' W 002°01'0 0.0
2018-Jun-14 05:00N 48°39' W 002°01'0 0.0
2018-Jun-14 01:48N 48°39' W 002°01'0 0.0
2018-Jun-14 01:18N 48°39' W 002°01'0 0.0
2018-Jun-14 01:00N 48°39' W 002°01'0 0.0
2018-Jun-13 15:09N 48°39' W 002°01'0 0.0
2018-Jun-13 13:06N 48°39' W 002°01'0 0.0
2018-Jun-13 11:48N 48°39' W 002°01'0 0.0
2018-Jun-12 18:53N 48°39' W 002°01'115 8.3
2018-Jun-12 05:05N 48°43' W 004°55'1 8.7
2018-Jun-12 04:57N 48°42' W 004°57'4 9.1
2018-Jun-12 04:30N 48°41' W 005°02'5 9.9
2018-Jun-12 03:58N 48°39' W 005°10'  
2018-Jun-09 04:09N 39°07' W 009°50'1 8.9
2018-Jun-09 04:00N 39°05' W 009°50'12 8.9
2018-Jun-09 02:40N 38°54' W 009°50'1 8.9
2018-Jun-09 02:30N 38°52' W 009°50'5 8.8
2018-Jun-09 01:58N 38°47' W 009°50'8 8.8
2018-Jun-09 01:02N 38°39' W 009°49'2 8.8
2018-Jun-09 00:48N 38°37' W 009°48'3 8.8
2018-Jun-09 00:30N 38°35' W 009°47'260 7.6
2018-Jun-07 14:17N 36°00' W 005°25'2 6.6
2018-Jun-07 14:00N 36°01' W 005°22'4 7.3
2018-Jun-07 13:30N 36°02' W 005°18'  
Track history (hours):
 
Tides and Currents Weather Stations Pressure Air Temp Water Temp Dewpoint Dewpoint Depression Visibility Wind Speed Wind Dir Waves Ship Positions

Geert K

Last reported at 2018-Jun-16 04:09 UTC. Time now 2018-Jun-20 09:46 UTC.
Position N 49°49' W 001°43'.

Length 90 m; draft 5.5 m.

Type: Ship. MMSI: 244462000.

Date/timePositionNaut miles runAvg speedWind from/ knotsBaromVisibWave heightAir tempDewpointWater temp
2018-Jun-16 04:09N 49°49' W 001°43'2 7.2
2018-Jun-16 03:55N 49°49' W 001°45'71 1.9
2018-Jun-14 14:18N 48°39' W 002°01'0 0.0
2018-Jun-14 05:00N 48°39' W 002°01'0 0.0
2018-Jun-14 01:48N 48°39' W 002°01'0 0.0
2018-Jun-14 01:18N 48°39' W 002°01'0 0.0
2018-Jun-14 01:00N 48°39' W 002°01'0 0.0
2018-Jun-13 15:09N 48°39' W 002°01'0 0.0
2018-Jun-13 13:06N 48°39' W 002°01'0 0.0
2018-Jun-13 11:48N 48°39' W 002°01'0 0.0
2018-Jun-12 18:53N 48°39' W 002°01'115 8.3
2018-Jun-12 05:05N 48°43' W 004°55'1 8.7
2018-Jun-12 04:57N 48°42' W 004°57'4 9.1
2018-Jun-12 04:30N 48°41' W 005°02'5 9.9
2018-Jun-12 03:58N 48°39' W 005°10'  
2018-Jun-09 04:09N 39°07' W 009°50'1 8.9
2018-Jun-09 04:00N 39°05' W 009°50'12 8.9
2018-Jun-09 02:40N 38°54' W 009°50'1 8.9
2018-Jun-09 02:30N 38°52' W 009°50'5 8.8
2018-Jun-09 01:58N 38°47' W 009°50'8 8.8
2018-Jun-09 01:02N 38°39' W 009°49'2 8.8
2018-Jun-09 00:48N 38°37' W 009°48'3 8.8
2018-Jun-09 00:30N 38°35' W 009°47'260 7.6
2018-Jun-07 14:17N 36°00' W 005°25'2 6.6
2018-Jun-07 14:00N 36°01' W 005°22'4 7.3
2018-Jun-07 13:30N 36°02' W 005°18'  

Dump ship's entire track history